Terminal Aerodrome Forecast
Issued by NWS

Home | Current Version | Previous Version | Text Only | Print | Product List | Glossary On
Versions: 1 2 3 4 5 6 7 8 9 10 11 12 13 14 15 16 17 18 19 20 21
000
FTUS46 KLOX 192300
TAFSBA
TAF
KSBA 192335Z 2000/2024 24006KT P6SM SCT030 BKN150
     FM200300 VRB03KT P6SM BKN050
     FM200800 VRB03KT P6SM SCT035 BKN250
     FM201300 VRB03KT P6SM BKN040
     FM201800 22007KT P6SM BKN040=

USA.gov is the U.S. government's official web portal to all federal, state and local government web resources and services.